createdAt,value
2023-02-18T00:01:56.536Z,52.80
2023-02-18T00:04:27.778Z,41.30
2023-02-18T00:06:56.062Z,32.80
2023-02-18T00:09:24.248Z,53.60
2023-02-18T00:11:53.068Z,41.60
2023-02-18T00:14:21.497Z,42.30
2023-02-18T00:16:49.628Z,51.70
2023-02-18T00:19:20.111Z,46.70
2023-02-18T00:21:48.336Z,45.30
2023-02-18T00:24:17.000Z,27.50
2023-02-18T00:26:45.924Z,33.00
2023-02-18T00:29:14.293Z,31.20
2023-02-18T00:31:44.159Z,35.00
2023-02-18T00:34:16.478Z,37.90
2023-02-18T00:36:44.596Z,61.80
2023-02-18T00:39:13.333Z,48.40
2023-02-18T00:41:42.744Z,47.70
2023-02-18T00:44:13.208Z,27.60
2023-02-18T00:46:41.727Z,36.50
2023-02-18T00:49:10.525Z,25.90
2023-02-18T00:51:39.000Z,45.70
2023-02-18T00:54:07.223Z,52.50
2023-02-18T00:56:35.972Z,47.70
2023-02-18T00:59:04.123Z,56.00
2023-02-18T01:01:32.796Z,58.60
2023-02-18T01:04:01.537Z,43.40
2023-02-18T01:06:29.703Z,41.70
2023-02-18T01:08:57.879Z,30.10
2023-02-18T01:11:26.318Z,50.70
2023-02-18T01:13:54.558Z,57.00
2023-02-18T01:16:23.616Z,36.40
2023-02-18T01:18:51.836Z,43.50
2023-02-18T01:21:20.007Z,48.70
2023-02-18T01:23:48.417Z,49.20
2023-02-18T01:26:17.478Z,49.90
2023-02-18T01:28:45.674Z,48.70
2023-02-18T01:31:15.136Z,48.10
2023-02-18T01:33:43.943Z,39.60
2023-02-18T01:36:13.421Z,36.80
2023-02-18T01:38:41.889Z,31.20
2023-02-18T01:41:10.793Z,28.40
2023-02-18T01:43:39.529Z,26.40
2023-02-18T01:46:18.904Z,47.20
2023-02-18T01:49:12.715Z,29.20
2023-02-18T01:51:47.095Z,53.70
2023-02-18T01:54:48.002Z,60.60
2023-02-18T01:57:20.960Z,54.90
2023-02-18T01:59:53.896Z,59.60
2023-02-18T02:02:29.366Z,50.60
2023-02-18T02:04:58.389Z,46.90
2023-02-18T02:07:28.508Z,53.40
2023-02-18T02:09:59.975Z,57.70
2023-02-18T02:12:52.998Z,60.10
2023-02-18T02:16:00.593Z,56.10
2023-02-18T02:19:20.881Z,54.70
2023-02-18T02:22:42.642Z,37.20
2023-02-18T02:25:13.570Z,30.80
2023-02-18T02:28:10.500Z,58.30
2023-02-18T02:30:47.848Z,51.00
2023-02-18T02:33:27.985Z,28.30
2023-02-18T02:36:05.344Z,57.30
2023-02-18T02:39:00.734Z,55.40
2023-02-18T02:41:44.334Z,42.00
2023-02-18T02:44:22.499Z,37.70
2023-02-18T02:47:02.859Z,38.20
2023-02-18T02:49:48.080Z,56.80
2023-02-18T02:52:28.567Z,52.40
2023-02-18T02:54:56.907Z,29.90
2023-02-18T02:57:24.969Z,28.20
2023-02-18T03:00:06.161Z,29.80
2023-02-18T03:02:54.964Z,27.80
2023-02-18T03:05:38.867Z,28.80
2023-02-18T03:08:20.868Z,25.80
2023-02-18T03:10:55.905Z,27.50
2023-02-18T03:13:33.007Z,62.30
2023-02-18T03:16:16.318Z,53.50
2023-02-18T03:18:56.098Z,41.20
2023-02-18T03:21:45.660Z,59.10
2023-02-18T03:24:24.556Z,51.60
2023-02-18T03:26:58.369Z,55.10
2023-02-18T03:29:29.156Z,53.40
2023-02-18T03:32:04.394Z,49.60
2023-02-18T03:34:41.641Z,58.80
2023-02-18T03:37:12.965Z,55.80
2023-02-18T03:39:51.389Z,59.30
2023-02-18T03:42:20.149Z,46.80
2023-02-18T03:44:48.211Z,57.80
2023-02-18T03:47:16.299Z,59.00
2023-02-18T03:49:44.381Z,52.20
2023-02-18T03:52:12.693Z,32.50
2023-02-18T03:54:40.833Z,35.50
2023-02-18T03:57:09.630Z,36.10
2023-02-18T03:59:37.819Z,36.60
2023-02-18T04:02:06.036Z,52.80
2023-02-18T04:04:34.310Z,35.50
2023-02-18T04:07:03.041Z,48.60
2023-02-18T04:09:31.644Z,55.20
2023-02-18T04:11:59.767Z,29.00
2023-02-18T04:14:27.916Z,40.40
2023-02-18T04:16:58.287Z,34.40
2023-02-18T04:19:26.394Z,34.70
2023-02-18T04:21:54.570Z,35.90
2023-02-18T04:24:22.831Z,56.80
2023-02-18T04:26:51.046Z,61.90
2023-02-18T04:29:19.417Z,50.40
2023-02-18T04:31:47.732Z,35.80
2023-02-18T04:34:16.008Z,37.60
2023-02-18T04:36:44.236Z,31.10
2023-02-18T04:39:12.515Z,30.90
2023-02-18T04:41:40.712Z,35.60
2023-02-18T04:44:09.061Z,56.60
2023-02-18T04:46:37.346Z,33.10
2023-02-18T04:49:08.050Z,38.00
2023-02-18T04:51:37.776Z,27.60
2023-02-18T04:54:06.001Z,34.60
2023-02-18T04:56:34.229Z,58.30
2023-02-18T04:59:02.470Z,64.90
2023-02-18T05:01:30.749Z,57.10
2023-02-18T05:04:12.108Z,59.80
2023-02-18T05:06:40.553Z,63.40
2023-02-18T05:09:09.492Z,63.10
2023-02-18T05:11:38.112Z,47.70
2023-02-18T05:14:06.542Z,33.90
2023-02-18T05:16:34.974Z,30.90
2023-02-18T05:19:03.400Z,40.20
2023-02-18T05:21:31.766Z,42.70
2023-02-18T05:24:00.248Z,49.70
2023-02-18T05:26:28.473Z,59.20
2023-02-18T05:28:57.488Z,37.10
2023-02-18T05:31:25.738Z,32.20
2023-02-18T05:34:00.057Z,54.30
2023-02-18T05:36:28.246Z,48.10
2023-02-18T05:38:56.566Z,61.70
2023-02-18T05:41:24.748Z,60.90
2023-02-18T05:44:11.648Z,64.40
2023-02-18T05:46:39.886Z,60.50
2023-02-18T05:49:08.180Z,62.10
2023-02-18T05:51:36.409Z,68.20
2023-02-18T05:54:04.807Z,70.50
2023-02-18T05:56:33.069Z,64.10
2023-02-18T05:59:01.105Z,66.70
2023-02-18T06:01:29.255Z,64.80
2023-02-18T06:03:57.298Z,55.80
2023-02-18T06:06:25.482Z,73.30
2023-02-18T06:08:53.572Z,51.20
2023-02-18T06:11:21.627Z,21.90
2023-02-18T06:13:49.735Z,56.20
2023-02-18T06:16:18.075Z,69.30
2023-02-18T06:18:46.295Z,66.50
2023-02-18T06:21:14.707Z,71.60
2023-02-18T06:23:45.285Z,66.00
2023-02-18T06:26:14.122Z,68.60
2023-02-18T06:28:42.387Z,48.50
2023-02-18T06:31:10.899Z,62.20
2023-02-18T06:33:39.267Z,38.40
2023-02-18T06:36:16.100Z,44.40
2023-02-18T06:38:46.023Z,55.60
2023-02-18T06:41:15.424Z,27.60
2023-02-18T06:43:43.759Z,7.10
2023-02-18T06:46:12.061Z,12.90
2023-02-18T06:48:40.633Z,12.40
2023-02-18T06:51:09.082Z,13.40
2023-02-18T06:53:37.382Z,17.40
2023-02-18T06:56:06.232Z,69.90
2023-02-18T06:58:34.585Z,73.20
2023-02-18T07:01:03.054Z,55.70
2023-02-18T07:03:31.397Z,53.90
2023-02-18T07:06:00.276Z,51.30
2023-02-18T07:08:30.946Z,38.90
2023-02-18T07:10:59.246Z,13.20
2023-02-18T07:13:27.589Z,5.90
2023-02-18T07:15:55.916Z,8.50
2023-02-18T07:18:24.066Z,7.50
2023-02-18T07:20:56.304Z,8.70
2023-02-18T07:23:24.561Z,6.60
2023-02-18T07:25:52.812Z,6.80
2023-02-18T07:28:23.389Z,7.40
2023-02-18T07:30:51.652Z,5.30
2023-02-18T07:33:20.205Z,4.20
2023-02-18T07:35:54.087Z,4.80
2023-02-18T07:38:22.841Z,6.20
2023-02-18T07:40:53.712Z,5.10
2023-02-18T07:43:22.107Z,6.40
2023-02-18T07:45:52.755Z,5.00
2023-02-18T07:48:29.959Z,7.20
2023-02-18T07:50:58.145Z,4.60
2023-02-18T07:53:26.241Z,3.60
2023-02-18T07:56:00.238Z,5.30
2023-02-18T07:58:31.150Z,5.60
2023-02-18T08:01:00.090Z,6.70
2023-02-18T08:03:34.969Z,6.60
2023-02-18T08:06:05.363Z,6.50
2023-02-18T08:08:36.709Z,5.20
2023-02-18T08:11:18.622Z,3.90
2023-02-18T08:13:48.679Z,3.70
2023-02-18T08:16:18.888Z,4.30
2023-02-18T08:18:48.723Z,4.30
2023-02-18T08:21:19.313Z,6.80
2023-02-18T08:23:48.158Z,5.90
2023-02-18T08:26:17.526Z,3.10
2023-02-18T08:28:47.331Z,3.70
2023-02-18T08:31:22.992Z,3.80
2023-02-18T08:33:52.692Z,3.80
2023-02-18T08:36:21.864Z,4.20
2023-02-18T08:38:50.252Z,6.00
2023-02-18T08:41:19.238Z,5.10
2023-02-18T08:43:48.167Z,5.90
2023-02-18T08:46:35.043Z,5.20
2023-02-18T08:49:09.830Z,4.60
2023-02-18T08:51:38.400Z,4.30
2023-02-18T08:54:06.736Z,5.60
2023-02-18T08:56:35.086Z,6.20
2023-02-18T08:59:03.321Z,6.00
2023-02-18T09:01:31.714Z,5.10
2023-02-18T09:04:00.005Z,7.10
2023-02-18T09:06:28.235Z,5.50
2023-02-18T09:08:56.421Z,5.10
2023-02-18T09:11:24.635Z,4.90
2023-02-18T09:13:53.021Z,4.90
2023-02-18T09:16:23.864Z,7.00
2023-02-18T09:18:53.374Z,5.80
2023-02-18T09:21:22.770Z,5.70
2023-02-18T09:23:51.563Z,6.10
2023-02-18T09:26:23.169Z,5.70
2023-02-18T09:28:57.886Z,5.70
2023-02-18T09:31:27.804Z,2.90
2023-02-18T09:34:01.679Z,5.90
2023-02-18T09:36:29.998Z,3.60
2023-02-18T09:38:59.086Z,6.60
2023-02-18T09:41:44.181Z,4.90
2023-02-18T09:44:26.075Z,4.30
2023-02-18T09:47:03.035Z,4.70
2023-02-18T09:49:37.610Z,4.60
2023-02-18T09:52:24.070Z,4.00
2023-02-18T09:54:52.508Z,6.00
2023-02-18T09:57:48.494Z,3.80
2023-02-18T10:00:28.763Z,6.20
2023-02-18T10:03:08.282Z,4.90
2023-02-18T10:05:37.607Z,5.90
2023-02-18T10:08:23.923Z,4.80
2023-02-18T10:10:52.382Z,5.50
2023-02-18T10:13:24.293Z,6.90
2023-02-18T10:15:53.513Z,4.40
2023-02-18T10:18:41.900Z,3.70
2023-02-18T10:21:14.367Z,6.80
2023-02-18T10:24:08.407Z,4.70
2023-02-18T10:26:38.352Z,6.50
2023-02-18T10:29:15.230Z,6.20
2023-02-18T10:31:50.399Z,5.90
2023-02-18T10:34:35.530Z,5.90
2023-02-18T10:37:28.625Z,4.90
2023-02-18T10:40:33.723Z,5.30
2023-02-18T10:43:30.750Z,4.10
2023-02-18T10:46:07.729Z,6.10
2023-02-18T10:48:51.011Z,6.30
2023-02-18T10:51:22.486Z,5.20
2023-02-18T10:53:53.297Z,5.30
2023-02-18T10:56:39.395Z,5.70
2023-02-18T10:59:22.110Z,5.70
2023-02-18T11:01:57.532Z,5.30
2023-02-18T11:04:35.863Z,4.90
2023-02-18T11:07:13.238Z,4.50
2023-02-18T11:09:48.399Z,5.60
2023-02-18T11:12:53.555Z,5.10
2023-02-18T11:15:26.842Z,3.30
2023-02-18T11:17:59.379Z,6.80
2023-02-18T11:20:36.660Z,5.90
2023-02-18T11:23:07.739Z,3.60
2023-02-18T11:25:39.498Z,5.70
2023-02-18T11:28:29.021Z,5.30
2023-02-18T11:31:01.994Z,7.00
2023-02-18T11:33:50.209Z,6.50
2023-02-18T11:36:35.642Z,6.50
2023-02-18T11:39:08.136Z,5.60
2023-02-18T11:41:39.045Z,6.40
2023-02-18T11:44:22.472Z,5.60
2023-02-18T11:47:00.042Z,4.00
2023-02-18T11:49:30.348Z,6.00
2023-02-18T11:52:20.602Z,5.40
2023-02-18T11:55:19.936Z,5.70
2023-02-18T11:57:56.415Z,5.40
2023-02-18T12:00:36.795Z,5.10
2023-02-18T12:03:15.806Z,4.90
2023-02-18T12:05:45.870Z,5.40
2023-02-18T12:08:24.212Z,3.80
2023-02-18T12:11:02.369Z,3.70
2023-02-18T12:13:38.334Z,3.90
2023-02-18T12:16:15.688Z,4.10
2023-02-18T12:18:54.143Z,4.20
2023-02-18T12:21:33.911Z,4.90
2023-02-18T12:24:27.616Z,6.00
2023-02-18T12:27:22.921Z,5.40
2023-02-18T12:30:15.390Z,4.90
2023-02-18T12:32:46.593Z,5.00
2023-02-18T12:35:59.835Z,4.80
2023-02-18T12:38:52.833Z,5.40
2023-02-18T12:44:45.624Z,3.00
2023-02-18T12:47:27.449Z,4.20
2023-02-18T12:50:15.440Z,3.70
2023-02-18T12:53:25.555Z,5.40
2023-02-18T12:56:12.686Z,5.70
2023-02-18T12:59:02.299Z,4.20
2023-02-18T13:01:56.000Z,4.70
2023-02-18T13:04:39.209Z,4.00
2023-02-18T13:07:19.660Z,3.50
2023-02-18T13:10:34.014Z,4.80
2023-02-18T13:13:22.922Z,3.30
2023-02-18T13:16:13.476Z,3.80
2023-02-18T13:18:54.462Z,4.50
2023-02-18T13:21:23.707Z,3.30
2023-02-18T13:24:22.295Z,4.60
2023-02-18T13:26:53.878Z,4.70
2023-02-18T13:29:24.980Z,3.30
2023-02-18T13:32:14.961Z,3.70
2023-02-18T13:35:07.412Z,4.10
2023-02-18T13:38:10.922Z,3.20
2023-02-18T13:40:40.692Z,3.50
2023-02-18T13:43:40.104Z,3.40
2023-02-18T13:46:14.472Z,3.30
2023-02-18T13:49:00.411Z,4.00
2023-02-18T13:51:44.784Z,2.40
2023-02-18T13:54:13.315Z,3.70
2023-02-18T13:56:45.617Z,2.60
2023-02-18T13:59:26.544Z,3.00
2023-02-18T14:01:54.772Z,3.30
2023-02-18T14:04:44.733Z,3.20
2023-02-18T14:07:19.147Z,2.20
2023-02-18T14:09:47.627Z,2.30
2023-02-18T14:12:38.444Z,2.60
2023-02-18T14:15:18.510Z,3.50
2023-02-18T14:17:59.180Z,3.00
2023-02-18T14:20:33.134Z,2.10
2023-02-18T14:23:01.452Z,3.20
2023-02-18T14:25:40.754Z,2.50
2023-02-18T14:28:35.056Z,3.60
2023-02-18T14:31:12.925Z,2.60
2023-02-18T14:33:43.003Z,2.80
2023-02-18T14:36:32.403Z,3.00
2023-02-18T14:39:29.702Z,2.90
2023-02-18T14:42:16.209Z,3.70
2023-02-18T14:45:25.471Z,3.30
2023-02-18T14:48:25.689Z,2.60
2023-02-18T14:50:56.671Z,4.00
2023-02-18T14:53:26.863Z,2.40
2023-02-18T14:55:59.959Z,3.00
2023-02-18T14:58:38.798Z,2.30
2023-02-18T15:01:23.805Z,2.70
2023-02-18T15:03:54.798Z,3.50
2023-02-18T15:06:32.508Z,3.00
2023-02-18T15:09:03.585Z,2.60
2023-02-18T15:11:45.307Z,2.90
2023-02-18T15:14:23.652Z,2.90
2023-02-18T15:16:52.598Z,3.80
2023-02-18T15:19:25.102Z,3.00
2023-02-18T15:21:58.068Z,3.50
2023-02-18T15:24:31.874Z,2.60
2023-02-18T15:27:11.286Z,2.90
2023-02-18T15:29:40.679Z,3.50
2023-02-18T15:32:24.785Z,2.60
2023-02-18T15:34:57.818Z,3.90
2023-02-18T15:37:25.910Z,3.50
2023-02-18T15:39:54.490Z,4.20
2023-02-18T15:42:30.460Z,3.50
2023-02-18T15:45:14.875Z,4.10
2023-02-18T15:47:50.124Z,2.90
2023-02-18T15:50:26.591Z,3.20
2023-02-18T15:52:59.917Z,2.60
2023-02-18T15:55:39.755Z,4.00
2023-02-18T15:58:32.826Z,4.60
2023-02-18T16:01:04.129Z,3.70
2023-02-18T16:03:45.394Z,3.50
2023-02-18T16:06:24.718Z,5.10
2023-02-18T16:09:09.647Z,4.80
2023-02-18T16:11:44.854Z,4.30
2023-02-18T16:14:25.749Z,4.20
2023-02-18T16:17:12.346Z,2.90
2023-02-18T16:20:03.341Z,3.50
2023-02-18T16:22:32.098Z,4.90
2023-02-18T16:25:34.262Z,4.40
2023-02-18T16:28:02.690Z,4.20
2023-02-18T16:30:33.342Z,3.70
2023-02-18T16:33:01.968Z,3.30
2023-02-18T16:35:47.426Z,2.40
2023-02-18T16:38:23.334Z,2.40
2023-02-18T16:40:54.655Z,3.80
2023-02-18T16:43:32.608Z,3.00
2023-02-18T16:46:12.956Z,4.30
2023-02-18T16:48:44.184Z,3.80
2023-02-18T16:51:25.972Z,3.60
2023-02-18T16:53:54.088Z,5.10
2023-02-18T16:56:27.729Z,4.20
2023-02-18T16:58:56.272Z,3.60
2023-02-18T17:01:31.318Z,3.50
2023-02-18T17:04:01.054Z,4.00
2023-02-18T17:06:30.184Z,3.80
2023-02-18T17:08:59.976Z,10.20
2023-02-18T17:11:33.879Z,13.20
2023-02-18T17:14:05.253Z,13.50
2023-02-18T17:16:33.636Z,9.40
2023-02-18T17:19:01.890Z,5.30
2023-02-18T17:21:29.976Z,6.80
2023-02-18T17:23:58.016Z,5.90
2023-02-18T17:26:28.787Z,4.70
2023-02-18T17:29:03.672Z,5.60
2023-02-18T17:31:39.578Z,4.00
2023-02-18T17:34:12.417Z,5.40
2023-02-18T17:36:45.384Z,5.60
2023-02-18T17:39:15.545Z,5.60
2023-02-18T17:41:44.100Z,4.40
2023-02-18T17:44:23.970Z,4.90
2023-02-18T17:46:52.875Z,4.50
2023-02-18T17:49:22.531Z,3.70
2023-02-18T17:51:52.213Z,5.50
2023-02-18T17:54:22.970Z,20.50
2023-02-18T17:56:51.230Z,4.40
2023-02-18T17:59:19.340Z,21.60
2023-02-18T18:01:47.550Z,10.00
2023-02-18T18:04:18.486Z,12.70
2023-02-18T18:06:47.505Z,7.80
2023-02-18T18:09:15.699Z,11.00
2023-02-18T18:11:43.976Z,11.10
2023-02-18T18:14:15.338Z,7.50
2023-02-18T18:16:43.621Z,8.20
2023-02-18T18:19:11.909Z,8.10
2023-02-18T18:21:40.619Z,7.60
2023-02-18T18:24:12.588Z,6.50
2023-02-18T18:26:40.878Z,5.70
2023-02-18T18:29:09.313Z,4.60
2023-02-18T18:31:37.631Z,2.60
2023-02-18T18:34:06.122Z,3.80
2023-02-18T18:36:34.275Z,3.40
2023-02-18T18:39:02.438Z,2.60
2023-02-18T18:41:30.478Z,4.30
2023-02-18T18:43:58.690Z,4.00
2023-02-18T18:46:26.922Z,6.40
2023-02-18T18:48:55.066Z,3.50
2023-02-18T18:51:28.867Z,3.30
2023-02-18T18:53:57.107Z,4.90
2023-02-18T18:56:25.346Z,5.90
2023-02-18T18:58:53.593Z,4.90
2023-02-18T19:01:23.755Z,5.40
2023-02-18T19:03:51.838Z,4.50
2023-02-18T19:06:21.021Z,8.30
2023-02-18T19:08:49.129Z,7.60
2023-02-18T19:11:17.691Z,6.80
2023-02-18T19:13:45.998Z,7.80
2023-02-18T19:16:20.467Z,5.50
2023-02-18T19:18:49.081Z,8.40
2023-02-18T19:21:17.267Z,6.10
2023-02-18T19:23:45.718Z,5.50
2023-02-18T19:26:16.655Z,3.80
2023-02-18T19:28:45.922Z,6.20
2023-02-18T19:31:15.260Z,7.70
2023-02-18T19:33:46.963Z,4.80
2023-02-18T19:36:16.873Z,6.30
2023-02-18T19:38:46.012Z,11.90
2023-02-18T19:41:17.064Z,44.20
2023-02-18T19:43:46.753Z,10.80
2023-02-18T19:46:18.350Z,7.90
2023-02-18T19:48:52.449Z,9.80
2023-02-18T19:51:24.869Z,7.00
2023-02-18T19:53:54.646Z,8.40
2023-02-18T19:56:24.443Z,7.50
2023-02-18T19:58:55.865Z,7.30
2023-02-18T20:01:24.348Z,6.20
2023-02-18T20:03:53.854Z,8.60
2023-02-18T20:06:22.264Z,8.50
2023-02-18T20:08:50.447Z,8.50
2023-02-18T20:11:18.593Z,8.30
2023-02-18T20:13:48.103Z,8.60
2023-02-18T20:16:16.475Z,5.50
2023-02-18T20:18:44.732Z,6.20
2023-02-18T20:21:13.159Z,10.60
2023-02-18T20:23:41.421Z,7.80
2023-02-18T20:26:12.117Z,5.20
2023-02-18T20:28:40.697Z,4.90
2023-02-18T20:31:12.369Z,6.20
2023-02-18T20:33:44.745Z,3.80
2023-02-18T20:36:14.110Z,3.90
2023-02-18T20:38:42.366Z,3.90
2023-02-18T20:41:14.453Z,4.20
2023-02-18T20:43:42.841Z,6.10
2023-02-18T20:46:14.641Z,7.60
2023-02-18T20:48:43.517Z,5.70
2023-02-18T20:51:14.412Z,5.20
2023-02-18T20:53:44.425Z,4.20
2023-02-18T20:56:13.528Z,4.50
2023-02-18T20:58:41.914Z,3.50
2023-02-18T21:01:15.677Z,2.70
2023-02-18T21:03:46.501Z,1.90
2023-02-18T21:06:18.342Z,2.10
2023-02-18T21:08:47.928Z,2.20
2023-02-18T21:11:22.756Z,2.50
2023-02-18T21:13:53.504Z,2.40
2023-02-18T21:16:23.500Z,2.70
2023-02-18T21:18:52.109Z,2.50
2023-02-18T21:21:21.129Z,2.20
2023-02-18T21:23:49.648Z,2.30
2023-02-18T21:26:21.491Z,2.20
2023-02-18T21:28:53.365Z,2.60
2023-02-18T21:31:25.277Z,2.50
2023-02-18T21:33:54.010Z,2.70
2023-02-18T21:36:23.337Z,2.80
2023-02-18T21:38:55.452Z,3.80
2023-02-18T21:41:24.589Z,3.40
2023-02-18T21:43:52.911Z,2.40
2023-02-18T21:46:33.496Z,3.20
2023-02-18T21:49:09.904Z,4.30
2023-02-18T21:52:08.363Z,5.10
2023-02-18T21:54:41.789Z,4.60
2023-02-18T21:57:18.200Z,4.30
2023-02-18T21:59:46.415Z,5.00
2023-02-18T22:02:20.185Z,4.70
2023-02-18T22:04:51.263Z,3.90
2023-02-18T22:07:21.816Z,4.90
2023-02-18T22:09:50.784Z,6.90
2023-02-18T22:12:18.924Z,6.40
2023-02-18T22:14:47.621Z,5.00
2023-02-18T22:17:16.750Z,5.40
2023-02-18T22:19:46.209Z,5.00
2023-02-18T22:22:14.400Z,4.00
2023-02-18T22:24:42.605Z,5.20
2023-02-18T22:27:10.928Z,5.00
2023-02-18T22:29:39.165Z,3.80
2023-02-18T22:32:07.392Z,4.70
2023-02-18T22:34:35.578Z,3.10
2023-02-18T22:37:03.712Z,5.10
2023-02-18T22:39:32.041Z,4.60
2023-02-18T22:42:00.368Z,3.60
2023-02-18T22:44:28.732Z,4.40
2023-02-18T22:46:57.684Z,5.50
2023-02-18T22:49:26.190Z,3.80
2023-02-18T22:51:54.998Z,5.60
2023-02-18T22:54:23.554Z,6.20
2023-02-18T22:56:53.254Z,3.80
2023-02-18T22:59:21.370Z,4.00
2023-02-18T23:01:49.952Z,6.00
2023-02-18T23:04:20.555Z,3.90
2023-02-18T23:06:50.396Z,6.10
2023-02-18T23:09:24.622Z,4.90
2023-02-18T23:11:56.766Z,4.60
2023-02-18T23:14:28.276Z,3.90
2023-02-18T23:17:14.903Z,4.50
2023-02-18T23:19:49.657Z,5.30
2023-02-18T23:22:20.758Z,5.40
2023-02-18T23:24:49.797Z,6.70
2023-02-18T23:27:18.070Z,5.20
2023-02-18T23:29:46.367Z,6.70
2023-02-18T23:32:14.564Z,5.80
2023-02-18T23:34:42.872Z,4.70
2023-02-18T23:37:12.708Z,7.20
2023-02-18T23:39:40.983Z,9.40
2023-02-18T23:42:09.176Z,10.50
2023-02-18T23:44:37.267Z,7.90
2023-02-18T23:47:05.579Z,5.80
2023-02-18T23:49:33.627Z,11.10
2023-02-18T23:52:01.859Z,12.00
2023-02-18T23:54:30.099Z,11.60
2023-02-18T23:56:58.300Z,10.20
2023-02-18T23:59:26.452Z,7.40
